Thompson, Pennsylvania
Current Conditions -  °F | °C
As of 3:53 AM on Saturday 20 Dec 2014 (Local Time) from KBGM Reporting Station
Overcast Overcast  
Wind Chill: 16°   Ceiling: 900
Heat Index: 24°   Visibility: 10mi
Dew Point: 21°   Wind: 7mph
Humidity: 88%   Direction: 350°N
Pressure: 30.13"   Gusts: NA
Location:  41.86°N, 75.51°W
Report Text: KBGM 200853Z AUTO 35006KT 10SM OVC009 M04/M06 A3013 RMK AO2 SLP227 T10441061 55005
Loading
Personal Weather Stations






























Interactive Weather Map New forecast layout! Learn more

10-Day Weather Forecast

Advertisements
Track Severe Weather on mobile